Time;durP1;ratioP1;P1;durP2;ratioP2;P2;SDS_P1;SDS_P2;PMS_P1;PMS_P2;Temp;Humidity;BMP_temperature;BMP_pressure;BME280_temperature;BME280_humidity;BME280_pressure;Samples;Min_cycle;Max_cycle;Signal;HPM_P1;HPM_P2
2024/01/11 00:02:20;;;;;;;71.90;30.90;;;;;;;-144.99;66.61;78574.30;108351;1251;60047;-76
2024/01/11 00:04:47;;;;;;;73.00;31.40;;;;;;;-144.99;66.70;78571.12;108331;1254;73800;-75
2024/01/11 00:07:15;;;;;;;71.70;30.10;;;;;;;-144.99;66.80;78567.93;108331;1256;73740;-76
2024/01/11 00:09:42;;;;;;;77.00;33.80;;;;;;;-144.99;66.58;78559.58;108316;1254;72696;-75
2024/01/11 00:12:10;;;;;;;80.30;34.00;;;;;;;-144.99;66.25;78557.19;108339;1254;60391;-76
2024/01/11 00:14:38;;;;;;;78.00;31.50;;;;;;;-144.99;66.32;78550.02;108352;1251;60386;-76
2024/01/11 00:17:05;;;;;;;73.40;32.40;;;;;;;-144.99;66.03;78539.67;108446;1255;74056;-76
2024/01/11 00:19:33;;;;;;;71.20;30.50;;;;;;;-144.99;65.84;78544.45;108404;1255;73435;-75
2024/01/11 00:22:00;;;;;;;71.40;30.00;;;;;;;-144.99;65.84;78550.02;108334;1254;72692;-75
2024/01/11 00:24:28;;;;;;;71.00;30.80;;;;;;;-144.99;65.96;78551.21;108419;1251;60414;-75
2024/01/11 00:26:55;;;;;;;73.60;32.20;;;;;;;-144.99;66.04;78551.61;108427;1251;60399;-75
2024/01/11 00:29:23;;;;;;;63.30;27.90;;;;;;;-144.99;66.23;78558.77;108386;1256;72642;-76
2024/01/11 00:31:51;;;;;;;70.70;29.60;;;;;;;-144.99;66.74;78560.77;108477;1251;72691;-75
2024/01/11 00:34:18;;;;;;;62.80;27.30;;;;;;;-144.99;67.21;78559.17;108348;1256;72682;-76
2024/01/11 00:36:46;;;;;;;60.40;25.90;;;;;;;-144.99;67.76;78552.02;108352;1251;60860;-75
2024/01/11 00:39:14;;;;;;;56.30;24.50;;;;;;;-144.99;68.26;78544.85;108434;1251;60262;-76
2024/01/11 00:41:41;;;;;;;60.70;26.50;;;;;;;-144.99;68.50;78540.88;108351;1251;74009;-76
2024/01/11 00:44:09;;;;;;;66.20;28.90;;;;;;;-144.99;69.19;78535.70;108333;1254;72187;-75
2024/01/11 00:46:38;;;;;;;72.50;31.60;;;;;;;-144.99;69.75;78537.69;108439;1251;71493;-76
2024/01/11 00:49:06;;;;;;;60.50;26.80;;;;;;;-144.99;69.91;78540.47;108450;1256;60445;-76
2024/01/11 00:51:33;;;;;;;68.30;28.30;;;;;;;-144.99;70.04;78542.46;108437;1256;60322;-75
2024/01/11 00:54:01;;;;;;;59.90;27.00;;;;;;;-144.99;70.05;78539.67;108377;1252;72665;-75
2024/01/11 00:56:28;;;;;;;62.90;27.40;;;;;;;-144.99;70.33;78542.46;108366;1251;73434;-76
2024/01/11 00:58:56;;;;;;;62.40;26.70;;;;;;;-144.99;70.36;78545.25;108282;1254;72683;-76
2024/01/11 01:01:24;;;;;;;58.70;27.40;;;;;;;-144.99;70.80;78550.81;108358;1253;60370;-75
2024/01/11 01:03:51;;;;;;;58.10;25.20;;;;;;;-144.99;71.03;78559.58;108332;1251;60413;-75
2024/01/11 01:06:19;;;;;;;55.80;24.00;;;;;;;-144.99;71.37;78570.33;108350;1251;73129;-75
2024/01/11 01:08:46;;;;;;;49.80;22.10;;;;;;;-144.99;71.74;78574.70;108354;1251;73591;-75
2024/01/11 01:11:14;;;;;;;51.50;24.60;;;;;;;-144.99;71.97;78571.52;108432;1253;70620;-75
2024/01/11 01:13:42;;;;;;;53.00;23.50;;;;;;;-144.99;71.94;78565.95;108309;1254;60179;-75
2024/01/11 01:16:09;;;;;;;56.10;23.30;;;;;;;-144.99;72.07;78554.80;108334;1256;60398;-75
2024/01/11 01:18:37;;;;;;;57.00;24.20;;;;;;;-144.99;72.13;78545.24;108462;1251;73840;-75
2024/01/11 01:21:06;;;;;;;53.20;23.30;;;;;;;-144.99;71.74;78536.48;108348;1256;72600;-75
2024/01/11 01:23:34;;;;;;;52.80;23.20;;;;;;;-144.99;71.55;78535.30;108327;1251;71809;-75
2024/01/11 01:26:02;;;;;;;56.60;23.50;;;;;;;-144.99;71.07;78531.31;108318;1251;60348;-75
2024/01/11 01:28:33;;;;;;;50.20;23.60;;;;;;;-144.99;70.61;78525.35;108348;1251;60158;-75
2024/01/11 01:31:01;;;;;;;50.10;22.80;;;;;;;-144.99;70.54;78525.34;108372;1251;73916;-75
2024/01/11 01:33:28;;;;;;;50.30;21.10;;;;;;;-144.99;70.39;78530.91;108333;1251;72388;-75
2024/01/11 01:35:56;;;;;;;46.00;20.20;;;;;;;-144.99;69.95;78525.35;108299;1251;71414;-75
2024/01/11 01:38:24;;;;;;;47.40;20.90;;;;;;;-144.99;69.46;78515.80;108268;1251;60560;-75
2024/01/11 01:40:51;;;;;;;47.90;21.00;;;;;;;-144.99;68.97;78513.02;108350;1251;60178;-75
2024/01/11 01:43:19;;;;;;;53.10;22.70;;;;;;;-144.99;68.82;78509.02;108361;1251;73115;-75
2024/01/11 01:45:46;;;;;;;47.90;21.30;;;;;;;-144.99;68.34;78504.25;108403;1251;73728;-75
2024/01/11 01:48:14;;;;;;;51.80;22.20;;;;;;;-144.99;68.03;78493.51;108327;1255;71387;-75
2024/01/11 01:50:45;;;;;;;47.50;20.50;;;;;;;-144.99;67.81;78475.20;108303;1255;60314;-74
2024/01/11 01:53:13;;;;;;;50.50;21.30;;;;;;;-144.99;67.37;78454.50;108261;1251;60406;-75
2024/01/11 01:55:40;;;;;;;48.20;22.10;;;;;;;-144.99;67.15;78440.96;108349;1251;73576;-75
2024/01/11 01:58:08;;;;;;;51.70;21.40;;;;;;;-144.99;66.53;78429.42;108447;1256;72628;-75
2024/01/11 02:00:35;;;;;;;49.10;21.40;;;;;;;-144.99;66.26;78420.27;108285;1251;71207;-74
2024/01/11 02:03:03;;;;;;;47.60;21.10;;;;;;;-144.99;66.00;78425.84;108458;1252;60306;-74
2024/01/11 02:05:31;;;;;;;51.80;21.50;;;;;;;-144.99;66.15;78432.21;108279;1253;60309;-74
2024/01/11 02:07:59;;;;;;;50.80;21.10;;;;;;;-144.99;66.39;78438.98;108381;1256;72742;-74
2024/01/11 02:10:27;;;;;;;50.80;21.20;;;;;;;-144.99;66.34;78441.77;108292;1251;73428;-74
2024/01/11 02:12:55;;;;;;;46.60;21.20;;;;;;;-144.99;66.28;78436.20;108265;1251;70800;-74
2024/01/11 02:15:22;;;;;;;46.50;20.60;;;;;;;-144.99;66.72;78433.80;108386;1256;60139;-74
2024/01/11 02:17:50;;;;;;;43.20;19.50;;;;;;;-144.99;66.94;78434.20;108377;1251;60415;-76
2024/01/11 02:20:17;;;;;;;52.90;20.40;;;;;;;-144.99;67.21;78437.77;108394;1251;71425;-76
2024/01/11 02:22:52;;;;;;;47.60;20.40;;;;;;;-144.99;67.65;78441.77;108467;1251;73599;-74
2024/01/11 02:25:19;;;;;;;42.30;18.50;;;;;;;-144.99;68.50;78435.79;108369;1250;72680;-74
2024/01/11 02:27:47;;;;;;;46.40;20.00;;;;;;;-144.99;68.82;78424.65;108409;1254;60090;-74
2024/01/11 02:30:15;;;;;;;44.20;21.20;;;;;;;-144.99;69.04;78408.33;108472;1250;60178;-74
2024/01/11 02:32:44;;;;;;;50.50;21.10;;;;;;;-144.99;69.25;78400.38;108478;1251;72675;-74
2024/01/11 02:35:15;;;;;;;44.40;19.50;;;;;;;-144.99;69.32;78396.39;108429;1251;71402;-75
2024/01/11 02:37:43;;;;;;;42.80;19.20;;;;;;;-144.99;69.31;78384.05;108430;1251;70145;-74
2024/01/11 02:40:11;;;;;;;52.50;21.70;;;;;;;-144.99;69.31;78362.56;108404;1252;60463;-74
2024/01/11 02:42:38;;;;;;;52.70;23.50;;;;;;;-144.99;69.43;78349.42;108292;1251;60450;-74
2024/01/11 02:45:06;;;;;;;47.80;21.00;;;;;;;-144.99;69.65;78335.49;108481;1251;72616;-74
2024/01/11 02:47:34;;;;;;;49.20;20.70;;;;;;;-144.99;69.98;78327.54;108285;1251;72408;-74
2024/01/11 02:50:02;;;;;;;49.90;22.40;;;;;;;-144.99;70.47;78318.78;108379;1251;71555;-73
2024/01/11 02:52:29;;;;;;;52.70;23.40;;;;;;;-144.99;70.82;78322.77;108421;1251;60387;-76
2024/01/11 02:54:57;;;;;;;45.50;20.30;;;;;;;-144.99;71.37;78325.95;108412;1256;60455;-74
2024/01/11 02:57:25;;;;;;;48.20;19.30;;;;;;;-144.99;72.04;78318.38;108365;1251;74045;-74
2024/01/11 02:59:52;;;;;;;51.40;22.40;;;;;;;-144.99;72.99;78315.20;108401;1251;72247;-76
2024/01/11 03:02:20;;;;;;;49.10;21.40;;;;;;;-144.99;73.54;78312.02;108360;1255;72349;-76
2024/01/11 03:04:47;;;;;;;45.00;19.20;;;;;;;-144.99;74.29;78303.27;108276;1252;60433;-76
2024/01/11 03:07:15;;;;;;;41.80;19.70;;;;;;;-144.99;75.36;78275.80;108442;1251;60435;-76
2024/01/11 03:09:43;;;;;;;47.00;21.10;;;;;;;-144.99;75.93;78276.99;108462;1251;73700;-76
2024/01/11 03:12:10;;;;;;;45.20;20.70;;;;;;;-144.99;76.49;78276.20;108367;1256;75421;-76
2024/01/11 03:14:38;;;;;;;47.80;18.70;;;;;;;-144.99;76.54;78272.61;108461;1251;71620;-76
2024/01/11 03:17:06;;;;;;;52.10;21.20;;;;;;;-144.99;77.04;78264.25;108433;1251;61602;-76
2024/01/11 03:19:34;;;;;;;44.20;20.70;;;;;;;-144.99;77.25;78251.52;108389;1251;60287;-77
2024/01/11 03:22:06;;;;;;;48.80;21.50;;;;;;;-144.99;77.43;78253.91;108284;1251;74292;-76
2024/01/11 03:24:37;;;;;;;44.00;21.20;;;;;;;-144.99;77.58;78251.13;108372;1251;73340;-77
2024/01/11 03:27:08;;;;;;;48.70;21.40;;;;;;;-144.99;77.89;78255.90;108370;1254;72329;-76
2024/01/11 03:29:35;;;;;;;46.90;20.40;;;;;;;-144.99;78.12;78264.65;108359;1253;61001;-76
2024/01/11 03:32:03;;;;;;;52.30;22.40;;;;;;;-144.99;78.29;78268.63;108434;1251;60423;-76
2024/01/11 03:34:31;;;;;;;48.10;22.40;;;;;;;-144.99;78.56;78265.05;108351;1251;73790;-76
2024/01/11 03:36:59;;;;;;;53.30;22.40;;;;;;;-144.99;78.70;78258.68;108282;1251;71558;-76
2024/01/11 03:39:26;;;;;;;48.90;21.10;;;;;;;-144.99;79.09;78257.09;108452;1252;72410;-74
2024/01/11 03:41:54;;;;;;;48.70;21.90;;;;;;;-144.99;79.27;78268.64;108454;1251;60213;-74
2024/01/11 03:44:22;;;;;;;47.30;20.70;;;;;;;-144.99;79.70;78272.21;108394;1251;60303;-74
2024/01/11 03:46:49;;;;;;;47.80;21.60;;;;;;;-144.99;80.09;78278.98;108384;1251;72617;-74
2024/01/11 03:49:17;;;;;;;50.60;22.20;;;;;;;-144.99;80.41;78277.39;108382;1251;73486;-74
2024/01/11 03:51:45;;;;;;;52.20;22.30;;;;;;;-144.99;80.69;78279.78;108486;1251;71491;-76
2024/01/11 03:54:12;;;;;;;46.40;20.90;;;;;;;-144.99;81.03;78275.00;108366;1251;60332;-76
2024/01/11 03:56:40;;;;;;;49.30;22.10;;;;;;;-144.99;81.56;78262.66;108402;1256;60516;-76
2024/01/11 03:59:08;;;;;;;46.60;21.50;;;;;;;-144.99;81.77;78261.08;108378;1251;73610;-76
2024/01/11 04:01:40;;;;;;;48.80;22.00;;;;;;;-144.99;81.99;78252.72;108356;1251;72601;-76
2024/01/11 04:04:08;;;;;;;51.20;22.10;;;;;;;-144.99;82.14;78253.51;108374;1254;72722;-76
2024/01/11 04:06:35;;;;;;;48.80;23.00;;;;;;;-144.99;82.32;78246.35;108533;1251;60527;-76
2024/01/11 04:09:04;;;;;;;50.00;22.00;;;;;;;-144.99;82.56;78232.02;108431;1256;60328;-76
2024/01/11 04:11:31;;;;;;;56.80;24.00;;;;;;;-144.99;82.99;78224.86;108397;1251;73551;-77
2024/01/11 04:13:59;;;;;;;45.70;22.40;;;;;;;-144.99;83.02;78224.46;108421;1251;72399;-77
2024/01/11 04:16:26;;;;;;;56.40;23.50;;;;;;;-144.99;83.25;78220.48;108412;1251;71435;-76
2024/01/11 04:18:54;;;;;;;54.90;23.50;;;;;;;-144.99;83.32;78212.52;108384;1251;60456;-76
2024/01/11 04:21:22;;;;;;;57.10;24.70;;;;;;;-144.99;83.24;78211.72;108295;1251;60313;-77
2024/01/11 04:23:50;;;;;;;49.60;23.60;;;;;;;-144.99;83.49;78199.39;108441;1251;73554;-76
2024/01/11 04:26:18;;;;;;;52.80;23.30;;;;;;;-144.99;83.39;78189.04;108490;1251;72399;-74
2024/01/11 04:28:46;;;;;;;54.90;24.20;;;;;;;-144.99;83.36;78180.28;108379;1251;71950;-74
2024/01/11 04:31:14;;;;;;;54.50;24.60;;;;;;;-144.99;83.29;78175.11;108349;1251;60455;-73
2024/01/11 04:33:42;;;;;;;50.90;23.60;;;;;;;-144.99;83.44;78161.98;108269;1251;60837;-74
2024/01/11 04:36:10;;;;;;;55.30;24.30;;;;;;;-144.99;83.50;78152.82;108374;1250;72818;-74
2024/01/11 04:38:38;;;;;;;54.40;23.20;;;;;;;-144.99;83.54;78151.63;108438;1251;72543;-74
2024/01/11 04:41:09;;;;;;;45.10;22.50;;;;;;;-144.99;83.45;78149.64;108307;1251;71493;-74
2024/01/11 04:43:43;;;;;;;52.30;23.40;;;;;;;-144.99;83.36;78151.63;108487;1251;60763;-76
2024/01/11 04:46:23;;;;;;;55.70;23.80;;;;;;;-144.99;83.43;78146.45;108389;1251;60456;-76
2024/01/11 04:48:51;;;;;;;49.30;23.20;;;;;;;-144.99;83.53;78137.30;108504;1254;73799;-74
2024/01/11 04:51:19;;;;;;;48.30;22.60;;;;;;;-144.99;83.59;78132.52;108421;1251;73488;-76
2024/01/11 04:53:47;;;;;;;49.00;23.00;;;;;;;-144.99;83.80;78131.73;108395;1251;72635;-74
2024/01/11 04:56:15;;;;;;;59.60;25.90;;;;;;;-144.99;83.96;78125.36;108323;1251;60485;-76
2024/01/11 04:58:43;;;;;;;54.60;24.50;;;;;;;-144.99;84.22;78115.02;108388;1251;60482;-74
2024/01/11 05:01:12;;;;;;;51.00;24.00;;;;;;;-144.99;84.33;78105.86;108391;1251;73006;-76
2024/01/11 05:03:39;;;;;;;53.30;23.30;;;;;;;-144.99;84.91;78094.32;108441;1251;74083;-75
2024/01/11 05:06:07;;;;;;;52.40;26.20;;;;;;;-144.99;84.96;78084.77;108383;1251;74336;-75
2024/01/11 05:08:35;;;;;;;59.70;25.60;;;;;;;-144.99;85.15;78083.17;108346;1252;60283;-75
2024/01/11 05:11:02;;;;;;;57.10;26.80;;;;;;;-144.99;85.93;78086.76;108449;1250;60444;-75
2024/01/11 05:13:30;;;;;;;51.20;26.00;;;;;;;-144.99;86.28;78085.96;108485;1254;73747;-74
2024/01/11 05:15:57;;;;;;;60.50;26.90;;;;;;;-144.99;86.66;78078.40;108494;1249;73614;-75
2024/01/11 05:18:25;;;;;;;59.60;28.00;;;;;;;-144.99;87.07;78071.64;108455;1251;71424;-76
2024/01/11 05:20:53;;;;;;;62.50;28.00;;;;;;;-144.99;87.62;78073.63;108494;1251;62041;-76
2024/01/11 05:23:20;;;;;;;58.10;26.70;;;;;;;-144.99;88.02;78064.87;108488;1251;60171;-76
2024/01/11 05:25:48;;;;;;;58.50;27.40;;;;;;;-144.99;88.13;78063.67;108452;1249;74299;-75
2024/01/11 05:28:15;;;;;;;60.20;27.70;;;;;;;-144.99;88.45;78069.25;108505;1250;72454;-75
2024/01/11 05:30:43;;;;;;;63.90;28.90;;;;;;;-144.99;88.41;78068.45;108446;1254;72726;-75
2024/01/11 05:33:11;;;;;;;60.70;27.90;;;;;;;-144.99;88.50;78070.05;108460;1251;60327;-75
2024/01/11 05:35:39;;;;;;;60.30;27.40;;;;;;;-144.99;89.00;78063.27;108385;1250;60334;-75
2024/01/11 05:38:06;;;;;;;64.10;30.40;;;;;;;-144.99;89.26;78070.44;108424;1250;72996;-75
2024/01/11 05:40:34;;;;;;;61.50;28.00;;;;;;;-144.99;89.31;78071.64;108369;1250;72468;-75
2024/01/11 05:43:01;;;;;;;60.80;28.70;;;;;;;-144.99;89.47;78058.90;108463;1250;70453;-75
2024/01/11 05:45:29;;;;;;;64.10;29.10;;;;;;;-144.99;89.45;78048.16;108463;1250;60481;-75
2024/01/11 05:48:13;;;;;;;61.00;28.30;;;;;;;-144.99;89.36;78042.19;108474;1251;60472;-76
2024/01/11 05:50:42;;;;;;;64.40;29.10;;;;;;;-144.99;89.84;78037.80;108491;1250;73204;-76
2024/01/11 05:53:10;;;;;;;63.50;28.90;;;;;;;-144.99;89.74;78031.05;108482;1251;74023;-77
2024/01/11 05:55:41;;;;;;;59.20;29.00;;;;;;;-144.99;89.98;78010.75;108489;1251;72653;-76
2024/01/11 05:58:09;;;;;;;63.00;30.30;;;;;;;-144.99;90.06;78000.40;108339;1250;61484;-76
2024/01/11 06:00:37;;;;;;;62.50;29.00;;;;;;;-144.99;90.11;77991.25;108507;1251;60277;-77
2024/01/11 06:03:05;;;;;;;56.70;28.20;;;;;;;-144.99;90.32;77980.90;108494;1250;73827;-77
2024/01/11 06:05:32;;;;;;;56.00;26.60;;;;;;;-144.99;90.09;77978.11;108470;1249;72385;-75
2024/01/11 06:08:00;;;;;;;63.10;30.30;;;;;;;-144.99;90.60;77978.11;108376;1251;74946;-76
2024/01/11 06:10:28;;;;;;;57.80;26.60;;;;;;;-144.99;90.56;77973.73;108340;1251;165540;-77
2024/01/11 06:12:56;;;;;;;63.60;28.70;;;;;;;-144.99;90.79;77965.38;108359;1251;61358;-76
2024/01/11 06:15:24;;;;;;;57.30;28.60;;;;;;;-144.99;91.07;77967.37;108403;1250;72038;-75
2024/01/11 06:17:52;;;;;;;61.10;29.00;;;;;;;-144.99;91.18;77966.57;108362;1250;73173;-77
2024/01/11 06:20:20;;;;;;;72.40;33.20;;;;;;;-144.99;91.30;77954.63;108281;1251;72140;-76
2024/01/11 06:22:48;;;;;;;67.60;32.50;;;;;;;-144.99;91.36;77953.45;108363;1251;60519;-76
2024/01/11 06:25:16;;;;;;;61.00;28.30;;;;;;;-144.99;91.39;77953.45;108329;1254;60315;-76
2024/01/11 06:27:44;;;;;;;58.30;28.80;;;;;;;-144.99;91.71;77958.61;108332;1256;72639;-76
2024/01/11 06:30:12;;;;;;;57.90;27.20;;;;;;;-144.99;91.99;77952.64;108305;1251;72238;-74
2024/01/11 06:32:40;;;;;;;62.40;27.50;;;;;;;-144.99;92.16;77948.67;108353;1255;74814;-74
2024/01/11 06:35:08;;;;;;;61.90;28.50;;;;;;;-144.99;92.33;77954.64;108184;1254;60558;-76
2024/01/11 06:37:35;;;;;;;65.50;29.20;;;;;;;-144.99;92.84;77958.22;108446;1251;60496;-76
2024/01/11 06:40:03;;;;;;;59.80;29.30;;;;;;;-144.99;92.68;77963.39;108383;1250;73893;-75
2024/01/11 06:42:31;;;;;;;60.60;27.60;;;;;;;-144.99;93.37;77966.17;108382;1251;73739;-77
2024/01/11 06:44:59;;;;;;;55.70;28.00;;;;;;;-144.99;93.57;77968.17;108426;1250;73114;-75
2024/01/11 06:47:26;;;;;;;58.00;27.70;;;;;;;-144.99;93.88;77965.38;108436;1251;60401;-74
2024/01/11 06:49:55;;;;;;;56.90;28.40;;;;;;;-144.99;93.94;77961.40;108349;1249;60728;-75
2024/01/11 06:52:22;;;;;;;54.30;27.70;;;;;;;-144.99;94.32;77961.40;108452;1251;73743;-74
2024/01/11 06:54:50;;;;;;;66.00;29.70;;;;;;;-144.99;94.18;77956.63;108458;1251;73271;-74
2024/01/11 06:57:17;;;;;;;59.80;28.30;;;;;;;-144.99;94.38;77952.24;108273;1251;71432;-76
2024/01/11 06:59:46;;;;;;;58.50;29.20;;;;;;;-144.99;94.54;77950.26;108300;1251;60306;-73
2024/01/11 07:02:16;;;;;;;60.00;27.50;;;;;;;-144.99;94.48;77947.87;108329;1251;60495;-79
2024/01/11 07:04:47;;;;;;;58.70;27.30;;;;;;;-144.99;94.94;77948.67;108309;1251;75729;-76
2024/01/11 07:07:18;;;;;;;68.40;30.30;;;;;;;-144.99;94.63;77947.48;108290;1251;75329;-78
2024/01/11 07:09:46;;;;;;;60.10;29.30;;;;;;;-144.99;94.66;77945.09;108317;1251;74694;-79
2024/01/11 07:12:14;;;;;;;55.90;27.40;;;;;;;-144.99;95.03;77935.14;108314;1251;62746;-75
2024/01/11 07:14:42;;;;;;;57.50;29.30;;;;;;;-144.99;94.88;77925.19;108305;1256;60782;-76
2024/01/11 07:17:10;;;;;;;62.80;30.10;;;;;;;-144.99;94.95;77917.63;108260;1251;74850;-76
2024/01/11 07:19:37;;;;;;;57.90;27.90;;;;;;;-144.99;94.97;77913.23;108362;1251;75639;-77
2024/01/11 07:22:05;;;;;;;55.50;27.60;;;;;;;-144.99;94.98;77911.66;108250;1251;73444;-76
2024/01/11 07:24:37;;;;;;;53.10;25.80;;;;;;;-144.99;95.39;77908.48;108275;1254;61587;-77
2024/01/11 07:27:06;;;;;;;49.50;25.50;;;;;;;-144.99;95.16;77906.88;108288;1251;60399;-78
2024/01/11 07:29:34;;;;;;;53.00;27.00;;;;;;;-144.99;94.97;77899.71;108272;1255;74276;-76
2024/01/11 07:32:03;;;;;;;54.50;27.70;;;;;;;-144.99;94.92;77894.95;108275;1256;72259;-75
2024/01/11 07:34:32;;;;;;;58.10;28.20;;;;;;;-144.99;95.06;77886.59;108246;1251;71492;-76
2024/01/11 07:37:00;;;;;;;52.80;27.40;;;;;;;-144.99;95.33;77874.25;108261;1251;60918;-75
2024/01/11 07:39:28;;;;;;;56.60;28.60;;;;;;;-144.99;95.04;77863.10;108414;1254;60507;-75
2024/01/11 07:41:56;;;;;;;60.30;28.70;;;;;;;-144.99;94.82;77860.33;108360;1251;72292;-75
2024/01/11 07:44:24;;;;;;;61.30;29.80;;;;;;;-144.99;94.24;77853.16;108330;1251;72901;-76
2024/01/11 07:46:51;;;;;;;61.10;28.20;;;;;;;-144.99;94.57;77842.80;108308;1251;72693;-76
2024/01/11 07:49:25;;;;;;;62.70;29.60;;;;;;;-144.99;94.57;77835.65;108321;1253;61322;-75
2024/01/11 07:51:53;;;;;;;60.80;27.80;;;;;;;-144.99;93.79;77843.20;108363;1251;60288;-76
2024/01/11 07:54:21;;;;;;;58.60;28.80;;;;;;;-144.99;93.60;77843.61;108348;1251;72759;-74
2024/01/11 07:56:49;;;;;;;56.70;27.70;;;;;;;-144.99;93.40;77838.83;108335;1251;73427;-76
2024/01/11 07:59:16;;;;;;;60.10;27.70;;;;;;;-144.99;93.49;77832.86;108193;1251;71437;-76
2024/01/11 08:01:48;;;;;;;57.00;26.70;;;;;;;-144.99;93.31;77834.05;108278;1251;60534;-76
2024/01/11 08:04:16;;;;;;;61.20;29.50;;;;;;;-144.99;93.31;77840.02;108365;1251;60377;-76
2024/01/11 08:06:43;;;;;;;59.50;29.40;;;;;;;-144.99;93.27;77845.98;108248;1257;74903;-76
2024/01/11 08:09:13;;;;;;;64.00;32.00;;;;;;;-144.99;93.30;77845.20;108253;1253;74491;-78
2024/01/11 08:11:41;;;;;;;59.30;30.40;;;;;;;-144.99;93.38;77844.00;108190;1254;74464;-75
2024/01/11 08:14:15;;;;;;;59.30;30.30;;;;;;;-144.99;93.29;77834.85;108249;1251;60416;-75
2024/01/11 08:16:43;;;;;;;60.30;30.30;;;;;;;-144.99;93.26;77830.88;108177;1251;60392;-75
2024/01/11 08:19:13;;;;;;;64.90;31.40;;;;;;;-144.99;93.20;77837.24;108361;1251;75620;-75
2024/01/11 08:21:41;;;;;;;57.10;29.40;;;;;;;-144.99;93.21;77828.48;108314;1253;72333;-75
2024/01/11 08:24:09;;;;;;;58.30;28.20;;;;;;;-144.99;92.81;77826.49;108243;1253;71224;-75
2024/01/11 08:26:36;;;;;;;65.20;31.20;;;;;;;-144.99;93.04;77829.67;108366;1251;61278;-74
2024/01/11 08:29:04;;;;;;;63.10;29.50;;;;;;;-144.99;92.95;77828.09;108354;1253;60313;-77
2024/01/11 08:31:35;;;;;;;56.00;28.70;;;;;;;-144.99;93.01;77831.67;108322;1256;73413;-77
2024/01/11 08:34:06;;;;;;;66.90;31.60;;;;;;;-144.99;93.18;77837.64;108395;1251;73580;-79
2024/01/11 08:36:35;;;;;;;60.60;29.50;;;;;;;-144.99;93.15;77833.26;108338;1251;73411;-77
2024/01/11 08:39:06;;;;;;;59.90;27.30;;;;;;;-144.99;93.42;77834.45;108293;1253;60348;-77
2024/01/11 08:41:37;;;;;;;55.00;27.90;;;;;;;-144.99;93.40;77836.45;108319;1251;60508;-77
2024/01/11 08:44:05;;;;;;;52.80;26.10;;;;;;;-144.99;93.49;77838.04;108308;1253;76072;-78
2024/01/11 08:46:33;;;;;;;54.30;26.90;;;;;;;-144.99;93.83;77833.26;108349;1253;73748;-77
2024/01/11 08:49:03;;;;;;;55.10;28.60;;;;;;;-144.99;93.62;77832.86;108352;1251;72588;-79
2024/01/11 08:51:34;;;;;;;56.70;28.30;;;;;;;-144.99;94.07;77836.84;108306;1253;60467;-77
2024/01/11 08:54:02;;;;;;;52.20;26.60;;;;;;;-144.99;94.47;77834.05;108212;1251;60411;-77
2024/01/11 08:56:29;;;;;;;52.20;26.00;;;;;;;-144.99;94.79;77828.48;108223;1253;73841;-77
2024/01/11 08:58:58;;;;;;;52.70;27.50;;;;;;;-144.99;94.92;77826.10;108406;1252;73960;-77
2024/01/11 09:01:26;;;;;;;55.70;27.30;;;;;;;-144.99;95.71;77822.91;108440;1251;74483;-76
2024/01/11 09:03:54;;;;;;;58.10;27.20;;;;;;;-144.99;95.96;77818.54;108321;1250;60362;-77
2024/01/11 09:06:22;;;;;;;58.00;27.50;;;;;;;-144.99;96.42;77824.51;108318;1251;60299;-76
2024/01/11 09:08:50;;;;;;;55.50;25.80;;;;;;;-144.99;96.93;77828.88;108337;1251;72637;-74
2024/01/11 09:11:18;;;;;;;54.00;27.60;;;;;;;-144.99;97.69;77837.64;108351;1251;74522;-75
2024/01/11 09:13:46;;;;;;;55.20;26.60;;;;;;;-144.99;97.87;77832.46;108359;1251;74110;-76
2024/01/11 09:16:16;;;;;;;51.40;25.70;;;;;;;-144.99;98.45;77826.89;108416;1251;60435;-75
2024/01/11 09:18:45;;;;;;;53.60;28.00;;;;;;;-144.99;99.11;77825.30;108295;1251;60678;-76
2024/01/11 09:21:17;;;;;;;54.50;27.60;;;;;;;-144.99;99.28;77814.55;108370;1251;73875;-77
2024/01/11 09:23:48;;;;;;;63.70;31.10;;;;;;;-144.99;99.37;77808.98;108448;1251;73639;-76
2024/01/11 09:26:16;;;;;;;56.10;28.70;;;;;;;-144.99;99.74;77803.41;108336;1251;74843;-78
2024/01/11 09:28:47;;;;;;;50.20;25.80;;;;;;;-144.99;99.97;77798.23;108261;1251;60325;-77
2024/01/11 09:31:15;;;;;;;55.10;27.60;;;;;;;-144.99;99.92;77794.27;108340;1250;61786;-76
2024/01/11 09:33:45;;;;;;;48.10;24.40;;;;;;;-144.99;100.00;77783.91;108423;1251;75201;-73
2024/01/11 09:36:13;;;;;;;53.80;26.20;;;;;;;-144.99;100.00;77785.51;108425;1250;72245;-74
2024/01/11 09:38:41;;;;;;;52.70;26.50;;;;;;;-144.99;100.00;77781.52;108399;1251;75177;-73
2024/01/11 09:41:11;;;;;;;50.90;24.90;;;;;;;-144.99;100.00;77779.14;108415;1251;60412;-73
2024/01/11 09:43:42;;;;;;;48.20;23.80;;;;;;;-144.99;100.00;77780.73;108320;1251;60339;-75
2024/01/11 09:46:10;;;;;;;47.90;25.10;;;;;;;-144.99;100.00;77779.14;108154;1251;75726;-76
2024/01/11 09:48:38;;;;;;;50.50;26.90;;;;;;;-144.99;100.00;77780.73;108175;1251;75261;-75
2024/01/11 09:51:09;;;;;;;48.20;23.50;;;;;;;-144.99;100.00;77776.74;108208;1254;71224;-75
2024/01/11 09:53:38;;;;;;;45.90;23.90;;;;;;;-144.99;100.00;77763.22;108571;1251;60287;-76
2024/01/11 09:56:07;;;;;;;56.30;27.60;;;;;;;-144.99;100.00;77755.27;108335;1255;61814;-75
2024/01/11 09:58:38;;;;;;;50.00;25.40;;;;;;;-144.99;100.00;77747.30;108306;1254;74653;-76
2024/01/11 10:01:12;;;;;;;52.50;25.70;;;;;;;-144.99;100.00;77746.91;108361;1251;77072;-76
2024/01/11 10:03:41;;;;;;;49.60;26.60;;;;;;;-144.99;100.00;77741.73;108388;1251;73456;-74
2024/01/11 10:06:09;;;;;;;47.20;25.10;;;;;;;-144.99;100.00;77740.54;108353;1253;60736;-75
2024/01/11 10:08:37;;;;;;;49.70;25.60;;;;;;;-144.99;100.00;77729.40;108378;1250;61912;-74
2024/01/11 10:11:05;;;;;;;44.50;24.00;;;;;;;-144.99;100.00;77715.07;108362;1251;75563;-77
2024/01/11 10:13:35;;;;;;;44.50;23.80;;;;;;;-144.99;100.00;77701.55;108380;1253;73856;-75
2024/01/11 10:16:09;;;;;;;51.90;25.50;;;;;;;-144.99;100.00;77698.75;108282;1251;73215;-75
2024/01/11 10:18:37;;;;;;;49.90;25.00;;;;;;;-144.99;100.00;77695.97;108125;1251;60309;-75
2024/01/11 10:21:06;;;;;;;52.50;25.40;;;;;;;-144.99;100.00;77686.42;108219;1251;60254;-76
2024/01/11 10:23:34;;;;;;;49.60;24.10;;;;;;;-144.99;100.00;77670.90;108318;1251;75592;-75
2024/01/11 10:26:02;;;;;;;48.50;25.50;;;;;;;-144.99;100.00;77670.50;108373;1251;74087;-76
2024/01/11 10:28:30;;;;;;;48.70;25.40;;;;;;;-144.99;100.00;77659.75;108469;1250;71431;-76
2024/01/11 10:30:58;;;;;;;45.60;24.90;;;;;;;-144.99;100.00;77648.62;108365;1251;60334;-76
2024/01/11 10:33:25;;;;;;;43.90;24.60;;;;;;;-144.99;100.00;77635.48;108416;1251;61951;-76
2024/01/11 10:35:53;;;;;;;45.80;23.50;;;;;;;-144.99;100.00;77635.09;108399;1250;72471;-75
2024/01/11 10:38:21;;;;;;;50.90;26.20;;;;;;;-144.99;100.00;77640.26;108261;1251;74487;-75
2024/01/11 10:40:49;;;;;;;46.60;24.70;;;;;;;-144.99;100.00;77639.46;108303;1251;73973;-76
2024/01/11 10:43:19;;;;;;;47.00;23.90;;;;;;;-144.99;100.00;77634.69;108448;1253;60412;-76
2024/01/11 10:45:48;;;;;;;48.40;26.30;;;;;;;-144.99;100.00;77629.92;108426;1251;61897;-76
2024/01/11 10:48:16;;;;;;;47.80;24.60;;;;;;;-144.99;100.00;77621.16;108412;1251;75458;-76
2024/01/11 10:50:45;;;;;;;51.20;26.20;;;;;;;-144.99;100.00;77621.95;108394;1250;74906;-75
2024/01/11 10:53:28;;;;;;;50.60;27.20;;;;;;;-144.99;100.00;77621.16;108435;1251;74467;-76
2024/01/11 10:55:58;;;;;;;53.80;26.40;;;;;;;-144.99;100.00;77617.58;108399;1251;60347;-75
2024/01/11 10:58:27;;;;;;;49.60;26.10;;;;;;;-144.99;100.00;77623.55;108341;1252;61788;-75